Coldspring, Texas
Current Conditions -  °F | °C
As of 2:53 PM on Tuesday 27 Jan 2015 (Local Time) from KCXO Reporting Station
Clear Clear  
Wind Chill: 78°   Ceiling: Unl
Heat Index: 78°   Visibility: 10mi
Dew Point: 42°   Wind: 7mph
Humidity: 28%   Direction: 330°NNW
Pressure: 30.11"   Gusts: NA
Location:  30.59°N, 95.13°W
Report Text: KCXO 272053Z 33006KT 10SM CLR 26/06 A3011 RMK AO2 SLP193 T02560056 56019
Loading
Personal Weather Stations






























Interactive Weather Map New forecast layout! Learn more

10-Day Weather Forecast

Advertisements
Track Severe Weather on mobile